Portada
METAR-TAF:

METAR-TAF

Aeroports :

Aeroport de Berna-Belp

Berna, Suïssa

latitud: 46-55N, longitud: 007-30E, altitud: 505 m

Observació

L'informe es va fer fa 26 minuts, a les 16:20 UTC
Vent 5 kt del Sud-Est
Temperatura 1°C
Humitat 80%
Pressió 1024 hPa
Visibilitat 10 km o més
sense núvols per sota de 1500 mi sense presència de cumulonimbus.

METAR: LSZB 101620Z 13005KT CAVOK 01/M02 Q1024 NOSIG

Hora: 17:46 (16:46 UTC)

Pronòstic

L'informe es va fer fa 2 hores i 21 minuts, a les 14:25 UTC
Pronòstic vàlid del 10 a les 15 UTC al 10 a les 24 UTC
Vent 3 kt amb direcció variable
Visibilitat 10 km o més
sense núvols per sota de 1500 mi sense presència de cumulonimbus.
Probabilitat 40%
l' 10 a les 21 UTC al 10 a les 24 UTC
Visibilitat: 4000 m
Boira superficial

TAF: LSZB 101425Z 1015/1024 VRB03KT CAVOK PROB40 1021/1024 4000 MIFG NSC

Observacions i pronòstics meteorològics de més de 4000 aeroports (METAR i TAF).

Les estacions disponibles són els punts grocs i vermells al mapa.

Posi el ratolí al punt desitjat per veure el nom de l'estació.

Feu clic per veure les observacions i els pronòstics meteorològics.

Per canviar el mapa: feu clic els botons verds amb una creu de color negre per apropar; al botó verd amb un guió per allunyar la imatge; o en les fletxes verdes per a mapes adjacents.


METAR-TAF: